Time,TemperatureF,DewpointF,PressureIn,WindDirection,WindDirectionDegrees,WindSpeedMPH,WindSpeedGustMPH,Humidity,HourlyPrecipIn,Conditions,Clouds,dailyrainin,SolarRadiationWatts/m^2,SoftwareType,DateUTC
2013-03-06 00:02:00,21.2,-4.7,30.31,NNW,330,7.0,8.0,31,0.00,,,0.00,0.0,meteohub,2013-03-06 07:02:00,
2013-03-06 00:07:00,21.0,-3.6,30.30,NNW,330,7.0,9.0,33,0.00,,,0.00,0.0,meteohub,2013-03-06 07:07:00,
2013-03-06 00:12:00,20.7,-3.3,30.30,NNW,330,7.0,9.0,34,0.00,,,0.00,0.0,meteohub,2013-03-06 07:12:00,
2013-03-06 00:18:00,21.2,-1.7,30.29,NNW,330,8.0,9.0,36,0.00,,,0.00,0.0,meteohub,2013-03-06 07:18:00,
2013-03-06 00:23:00,20.8,-1.3,30.29,NNW,330,7.0,9.0,37,0.00,,,0.00,0.0,meteohub,2013-03-06 07:23:00,
2013-03-06 00:28:00,19.8,-2.9,30.29,NNW,330,6.0,9.0,36,0.00,,,0.00,0.0,meteohub,2013-03-06 07:28:00,
2013-03-06 00:33:00,19.8,-2.9,30.29,NNW,330,5.0,9.0,36,0.00,,,0.00,0.0,meteohub,2013-03-06 07:33:00,
2013-03-06 00:38:00,18.5,-1.3,30.29,NNW,328,7.0,8.0,41,0.00,,,0.00,0.0,meteohub,2013-03-06 07:38:00,
2013-03-06 00:44:00,19.0,-2.9,30.30,NNW,328,5.0,9.0,37,0.00,,,0.00,0.0,meteohub,2013-03-06 07:44:00,
2013-03-06 00:49:00,19.2,-2.7,30.30,NNW,328,7.0,9.0,37,0.00,,,0.00,0.0,meteohub,2013-03-06 07:49:00,
2013-03-06 00:54:00,19.4,-4.4,30.30,NNW,328,7.0,9.0,34,0.00,,,0.00,0.0,meteohub,2013-03-06 07:54:00,
2013-03-06 00:59:00,19.9,-2.2,30.30,NNW,328,7.0,8.0,37,0.00,,,0.00,0.0,meteohub,2013-03-06 07:59:00,
2013-03-06 01:04:00,19.8,-2.9,30.30,NNW,328,8.0,8.0,36,0.00,,,0.00,0.0,meteohub,2013-03-06 08:04:00,
2013-03-06 01:10:00,20.1,-2.6,30.30,NNW,328,2.0,7.0,36,0.00,,,0.00,0.0,meteohub,2013-03-06 08:10:00,
2013-03-06 01:15:00,20.7,-6.5,30.30,NW,324,3.0,11.0,29,0.00,,,0.00,0.0,meteohub,2013-03-06 08:15:00,
2013-03-06 01:20:00,21.4,-2.0,30.29,NW,324,0.0,11.0,35,0.00,,,0.00,0.0,meteohub,2013-03-06 08:20:00,
2013-03-06 01:25:00,21.9,-3.5,30.29,NW,324,6.0,11.0,32,0.00,,,0.00,0.0,meteohub,2013-03-06 08:25:00,
2013-03-06 01:30:00,22.8,-3.3,30.29,NW,323,2.0,11.0,31,0.00,,,0.00,0.0,meteohub,2013-03-06 08:30:00,
2013-03-06 01:36:00,23.2,-1.7,30.28,NW,323,5.0,11.0,33,0.00,,,0.00,0.0,meteohub,2013-03-06 08:36:00,
2013-03-06 01:41:00,24.4,-3.3,30.29,NW,322,0.0,11.0,29,0.00,,,0.00,0.0,meteohub,2013-03-06 08:41:00,
2013-03-06 01:46:00,25.0,-3.5,30.28,NW,322,5.0,9.0,28,0.00,,,0.00,0.0,meteohub,2013-03-06 08:46:00,
2013-03-06 01:51:00,24.3,-1.3,30.28,NW,322,5.0,9.0,32,0.00,,,0.00,0.0,meteohub,2013-03-06 08:51:00,
2013-03-06 01:56:00,24.4,-3.3,30.28,NW,322,1.0,9.0,29,0.00,,,0.00,0.0,meteohub,2013-03-06 08:56:00,
2013-03-06 02:02:00,25.5,-0.2,30.28,NW,322,5.0,9.0,32,0.00,,,0.00,0.0,meteohub,2013-03-06 09:02:00,
2013-03-06 02:07:00,24.3,-0.8,30.27,NW,322,5.0,9.0,33,0.00,,,0.00,0.0,meteohub,2013-03-06 09:07:00,
2013-03-06 02:12:00,23.0,-0.6,30.27,NW,322,4.0,8.0,35,0.00,,,0.00,0.0,meteohub,2013-03-06 09:12:00,
2013-03-06 02:17:00,24.4,-0.6,30.26,WNW,299,2.0,8.0,33,0.00,,,0.00,0.0,meteohub,2013-03-06 09:17:00,
2013-03-06 02:22:00,24.3,0.5,30.26,NW,316,8.0,8.0,35,0.00,,,0.00,0.0,meteohub,2013-03-06 09:22:00,
2013-03-06 02:28:00,24.6,-1.1,30.25,NW,321,0.0,10.0,32,0.00,,,0.00,0.0,meteohub,2013-03-06 09:28:00,
2013-03-06 02:33:00,26.1,2.1,30.25,NNW,327,9.0,10.0,35,0.00,,,0.00,0.0,meteohub,2013-03-06 09:33:00,
2013-03-06 02:38:00,27.0,3.0,30.24,SE,141,1.0,9.0,35,0.00,,,0.00,0.0,meteohub,2013-03-06 09:38:00,
2013-03-06 02:43:00,29.1,4.8,30.23,SE,127,6.0,10.0,35,0.00,,,0.00,0.0,meteohub,2013-03-06 09:43:00,
2013-03-06 02:48:00,30.4,4.1,30.23,ESE,116,9.0,10.0,32,0.00,,,0.00,0.0,meteohub,2013-03-06 09:48:00,
2013-03-06 02:54:00,31.6,5.2,30.23,ESE,114,0.0,11.0,32,0.00,,,0.00,0.0,meteohub,2013-03-06 09:54:00,
2013-03-06 02:59:00,31.6,4.5,30.22,ENE,75,2.0,11.0,31,0.00,,,0.00,0.0,meteohub,2013-03-06 09:59:00,
2013-03-06 03:04:00,31.5,5.0,30.22,East,95,0.0,11.0,32,0.00,,,0.00,0.0,meteohub,2013-03-06 10:04:00,
2013-03-06 03:09:00,30.9,5.9,30.22,East,96,2.0,7.0,34,0.00,,,0.00,0.0,meteohub,2013-03-06 10:09:00,
2013-03-06 03:14:00,30.4,5.4,30.22,East,98,4.0,8.0,34,0.00,,,0.00,0.0,meteohub,2013-03-06 10:14:00,
2013-03-06 03:20:00,30.6,5.5,30.21,SE,145,4.0,8.0,34,0.00,,,0.00,0.0,meteohub,2013-03-06 10:20:00,
2013-03-06 03:25:00,31.6,5.9,30.20,SE,127,5.0,13.0,33,0.00,,,0.00,0.0,meteohub,2013-03-06 10:25:00,
2013-03-06 03:30:00,32.0,6.1,30.20,ESE,119,2.0,13.0,33,0.00,,,0.00,0.0,meteohub,2013-03-06 10:30:00,
2013-03-06 03:35:00,32.2,7.0,30.20,ESE,123,1.0,13.0,34,0.00,,,0.00,0.0,meteohub,2013-03-06 10:35:00,
2013-03-06 03:41:00,32.2,7.0,30.20,ESE,123,1.0,10.0,34,0.00,,,0.00,0.0,meteohub,2013-03-06 10:41:00,
2013-03-06 03:46:00,29.5,6.4,30.20,North,-999,-999.0,6.0,37,0.00,,,0.00,0.0,meteohub,2013-03-06 10:46:00,
2013-03-06 03:51:00,28.0,6.3,30.20,NW,316,11.0,11.0,39,0.00,,,0.00,0.0,meteohub,2013-03-06 10:51:00,
2013-03-06 03:56:00,26.8,5.7,30.20,NW,317,6.0,12.0,40,0.00,,,0.00,0.0,meteohub,2013-03-06 10:56:00,
2013-03-06 04:02:00,26.1,6.1,30.20,NW,317,2.0,12.0,42,0.00,,,0.00,0.0,meteohub,2013-03-06 11:02:00,
2013-03-06 04:07:00,25.9,6.4,30.19,NW,317,2.0,12.0,43,0.00,,,0.00,0.0,meteohub,2013-03-06 11:07:00,
2013-03-06 04:12:00,24.4,6.6,30.19,NW,318,5.0,9.0,46,0.00,,,0.00,0.0,meteohub,2013-03-06 11:12:00,
2013-03-06 04:17:00,24.3,7.9,30.19,NW,317,6.0,7.0,49,0.00,,,0.00,0.0,meteohub,2013-03-06 11:17:00,
2013-03-06 04:23:00,23.7,7.3,30.19,NW,317,6.0,7.0,49,0.00,,,0.00,0.0,meteohub,2013-03-06 11:23:00,
2013-03-06 04:28:00,23.5,6.8,30.19,NW,317,4.0,7.0,48,0.00,,,0.00,0.0,meteohub,2013-03-06 11:28:00,
2013-03-06 04:33:00,23.5,7.7,30.19,NW,317,5.0,7.0,50,0.00,,,0.00,0.0,meteohub,2013-03-06 11:33:00,
2013-03-06 04:38:00,23.4,7.9,30.19,NW,317,4.0,7.0,51,0.00,,,0.00,0.0,meteohub,2013-03-06 11:38:00,
2013-03-06 04:44:00,23.2,7.3,30.19,North,-999,-999.0,6.0,50,0.00,,,0.00,0.0,meteohub,2013-03-06 11:44:00,
2013-03-06 04:49:00,22.6,7.2,30.19,NW,317,3.0,6.0,51,0.00,,,0.00,0.0,meteohub,2013-03-06 11:49:00,
2013-03-06 04:54:00,21.7,7.2,30.19,NW,317,5.0,5.0,53,0.00,,,0.00,0.0,meteohub,2013-03-06 11:54:00,
2013-03-06 04:59:00,22.3,7.3,30.19,NW,317,8.0,8.0,52,0.00,,,0.00,0.0,meteohub,2013-03-06 11:59:00,
2013-03-06 05:04:00,24.1,6.3,30.18,NW,326,3.0,7.0,46,0.00,,,0.00,0.0,meteohub,2013-03-06 12:04:00,
2013-03-06 05:10:00,25.2,6.8,30.19,NW,326,1.0,10.0,45,0.00,,,0.00,0.0,meteohub,2013-03-06 12:10:00,
2013-03-06 05:15:00,26.1,6.1,30.18,WNW,290,0.0,10.0,42,0.00,,,0.00,0.0,meteohub,2013-03-06 12:15:00,
2013-03-06 05:20:00,28.4,7.2,30.18,West,273,5.0,8.0,40,0.00,,,0.00,0.0,meteohub,2013-03-06 12:20:00,
2013-03-06 05:25:00,27.1,7.2,30.19,West,273,4.0,8.0,42,0.00,,,0.00,0.0,meteohub,2013-03-06 12:25:00,
2013-03-06 05:31:00,24.3,5.5,30.19,West,273,0.0,7.0,44,0.00,,,0.00,0.0,meteohub,2013-03-06 12:31:00,
2013-03-06 05:36:00,24.3,7.0,30.19,West,273,2.0,7.0,47,0.00,,,0.00,0.0,meteohub,2013-03-06 12:36:00,
2013-03-06 05:41:00,23.2,7.3,30.18,NW,307,9.0,9.0,50,0.00,,,0.00,0.0,meteohub,2013-03-06 12:41:00,
2013-03-06 05:46:00,22.5,6.3,30.19,WNW,303,5.0,10.0,49,0.00,,,0.00,0.0,meteohub,2013-03-06 12:46:00,
2013-03-06 05:52:00,22.8,5.5,30.19,WNW,303,4.0,10.0,47,0.00,,,0.00,0.0,meteohub,2013-03-06 12:52:00,
2013-03-06 05:57:00,22.3,6.1,30.19,WNW,303,4.0,10.0,49,0.00,,,0.00,0.0,meteohub,2013-03-06 12:57:00,
2013-03-06 06:02:00,22.1,7.2,30.19,WNW,303,0.0,7.0,52,0.00,,,0.00,0.0,meteohub,2013-03-06 13:02:00,
2013-03-06 06:07:00,22.1,6.3,30.19,WNW,303,2.0,7.0,50,0.00,,,0.00,0.0,meteohub,2013-03-06 13:07:00,
2013-03-06 06:13:00,22.6,6.8,30.19,WNW,303,5.0,8.0,50,0.00,,,0.00,0.0,meteohub,2013-03-06 13:13:00,
2013-03-06 06:18:00,23.0,7.2,30.18,WNW,303,9.0,9.0,50,0.00,,,0.00,0.0,meteohub,2013-03-06 13:18:00,
2013-03-06 06:23:00,23.7,7.0,30.19,NW,306,7.0,10.0,48,0.00,,,0.00,0.0,meteohub,2013-03-06 13:23:00,
2013-03-06 06:28:00,23.7,7.3,30.19,NW,309,6.0,10.0,49,0.00,,,0.00,5.0,meteohub,2013-03-06 13:28:00,
2013-03-06 06:34:00,24.1,7.7,30.19,NW,315,5.0,10.0,49,0.00,,,0.00,9.0,meteohub,2013-03-06 13:34:00,
2013-03-06 06:39:00,23.5,7.2,30.18,NW,314,4.0,12.0,49,0.00,,,0.00,12.0,meteohub,2013-03-06 13:39:00,
2013-03-06 06:44:00,23.4,7.9,30.18,NW,314,0.0,12.0,51,0.00,,,0.00,14.0,meteohub,2013-03-06 13:44:00,
2013-03-06 06:49:00,23.4,7.9,30.18,NW,314,0.0,12.0,51,0.00,,,0.00,19.0,meteohub,2013-03-06 13:49:00,
2013-03-06 06:55:00,24.1,8.6,30.18,NW,316,6.0,8.0,51,0.00,,,0.00,23.0,meteohub,2013-03-06 13:55:00,
2013-03-06 07:00:00,24.4,8.4,30.18,NW,316,3.0,11.0,50,0.00,,,0.00,25.0,meteohub,2013-03-06 14:00:00,
2013-03-06 07:05:00,24.6,9.1,30.18,NW,316,5.0,11.0,51,0.00,,,0.00,62.0,meteohub,2013-03-06 14:05:00,
2013-03-06 07:10:00,24.4,9.0,30.18,NW,316,3.0,6.0,51,0.00,,,0.00,28.0,meteohub,2013-03-06 14:10:00,
2013-03-06 07:15:00,24.4,9.0,30.18,NW,316,6.0,7.0,51,0.00,,,0.00,44.0,meteohub,2013-03-06 14:15:00,
2013-03-06 07:21:00,26.8,9.7,30.18,NW,316,4.0,7.0,48,0.00,,,0.00,37.0,meteohub,2013-03-06 14:21:00,
2013-03-06 07:26:00,27.3,10.2,30.17,NW,316,3.0,7.0,48,0.00,,,0.00,39.0,meteohub,2013-03-06 14:26:00,
2013-03-06 07:31:00,27.7,9.7,30.17,NW,316,6.0,7.0,46,0.00,,,0.00,42.0,meteohub,2013-03-06 14:31:00,
2013-03-06 07:36:00,28.8,10.6,30.17,NW,316,5.0,7.0,46,0.00,,,0.00,46.0,meteohub,2013-03-06 14:36:00,
2013-03-06 07:42:00,29.5,10.8,30.16,NW,316,5.0,7.0,45,0.00,,,0.00,47.0,meteohub,2013-03-06 14:42:00,
2013-03-06 07:47:00,29.7,11.8,30.16,NW,316,4.0,7.0,47,0.00,,,0.00,47.0,meteohub,2013-03-06 14:47:00,
2013-03-06 07:52:00,30.6,11.3,30.15,NW,316,2.0,7.0,44,0.00,,,0.00,53.0,meteohub,2013-03-06 14:52:00,
2013-03-06 07:57:00,30.6,11.7,30.16,NW,316,2.0,8.0,45,0.00,,,0.00,51.0,meteohub,2013-03-06 14:57:00,
2013-03-06 08:02:00,31.6,11.1,30.15,NW,316,1.0,8.0,42,0.00,,,0.00,47.0,meteohub,2013-03-06 15:02:00,
2013-03-06 08:08:00,33.4,11.1,30.16,North,354,6.0,8.0,39,0.00,,,0.00,49.0,meteohub,2013-03-06 15:08:00,
2013-03-06 08:13:00,35.4,11.7,30.15,East,93,1.0,8.0,37,0.00,,,0.00,63.0,meteohub,2013-03-06 15:13:00,
2013-03-06 08:18:00,36.7,11.7,30.15,East,89,1.0,8.0,35,0.00,,,0.00,56.0,meteohub,2013-03-06 15:18:00,
2013-03-06 08:23:00,37.4,10.2,30.15,ENE,77,2.0,8.0,32,0.00,,,0.00,84.0,meteohub,2013-03-06 15:23:00,
2013-03-06 08:29:00,37.9,11.3,30.15,NE,50,6.0,8.0,33,0.00,,,0.00,88.0,meteohub,2013-03-06 15:29:00,
2013-03-06 08:34:00,38.5,11.8,30.15,ENE,66,2.0,8.0,33,0.00,,,0.00,113.0,meteohub,2013-03-06 15:34:00,
2013-03-06 08:39:00,38.8,10.8,30.15,NNE,24,2.0,9.0,31,0.00,,,0.00,132.0,meteohub,2013-03-06 15:39:00,
2013-03-06 08:44:00,39.2,11.1,30.14,North,5,6.0,9.0,31,0.00,,,0.00,114.0,meteohub,2013-03-06 15:44:00,
2013-03-06 08:50:00,39.7,10.8,30.14,North,6,0.0,9.0,30,0.00,,,0.00,44.0,meteohub,2013-03-06 15:50:00,
2013-03-06 08:55:00,39.9,10.2,30.15,NNW,335,1.0,7.0,29,0.00,,,0.00,216.0,meteohub,2013-03-06 15:55:00,
2013-03-06 09:00:00,39.9,10.2,30.15,NW,319,1.0,8.0,29,0.00,,,0.00,62.0,meteohub,2013-03-06 16:00:00,
2013-03-06 09:05:00,39.9,10.2,30.15,NW,319,1.0,8.0,29,0.00,,,0.00,58.0,meteohub,2013-03-06 16:05:00,
2013-03-06 09:10:00,39.7,9.3,30.14,North,-999,-999.0,7.0,28,0.00,,,0.00,39.0,meteohub,2013-03-06 16:10:00,
2013-03-06 09:16:00,39.7,8.4,30.14,ESE,106,0.0,5.0,27,0.00,,,0.00,72.0,meteohub,2013-03-06 16:16:00,
2013-03-06 09:21:00,39.9,9.5,30.14,ESE,106,2.0,5.0,28,0.00,,,0.00,47.0,meteohub,2013-03-06 16:21:00,
2013-03-06 09:26:00,40.1,8.8,30.14,SE,131,6.0,6.0,27,0.00,,,0.00,42.0,meteohub,2013-03-06 16:26:00,
2013-03-06 09:31:00,40.3,8.1,30.14,SE,133,5.0,8.0,26,0.00,,,0.00,39.0,meteohub,2013-03-06 16:31:00,
2013-03-06 09:36:00,40.3,8.1,30.14,SE,133,0.0,8.0,26,0.00,,,0.00,40.0,meteohub,2013-03-06 16:36:00,
2013-03-06 09:42:00,40.8,7.7,30.14,SE,133,3.0,8.0,25,0.00,,,0.00,51.0,meteohub,2013-03-06 16:42:00,
2013-03-06 09:47:00,41.4,8.2,30.14,SE,133,0.0,6.0,25,0.00,,,0.00,40.0,meteohub,2013-03-06 16:47:00,
2013-03-06 09:52:00,41.7,8.4,30.14,SE,133,0.0,5.0,25,0.00,,,0.00,37.0,meteohub,2013-03-06 16:52:00,
2013-03-06 09:57:00,41.9,6.8,30.13,SE,133,5.0,5.0,23,0.00,,,0.00,39.0,meteohub,2013-03-06 16:57:00,
2013-03-06 10:03:00,42.4,9.1,30.13,SE,133,2.0,6.0,25,0.00,,,0.00,39.0,meteohub,2013-03-06 17:03:00,
2013-03-06 10:08:00,42.8,7.5,30.13,SE,133,0.0,6.0,23,0.00,,,0.00,39.0,meteohub,2013-03-06 17:08:00,
2013-03-06 10:13:00,43.2,7.9,30.12,WNW,299,7.0,7.0,23,0.00,,,0.00,60.0,meteohub,2013-03-06 17:13:00,
2013-03-06 10:18:00,43.2,5.9,30.12,SSE,163,0.0,8.0,21,0.00,,,0.00,54.0,meteohub,2013-03-06 17:18:00,
2013-03-06 10:23:00,43.5,6.1,30.11,SE,126,1.0,8.0,21,0.00,,,0.00,155.0,meteohub,2013-03-06 17:23:00,
2013-03-06 10:28:00,44.1,4.5,30.11,NNW,333,6.0,8.0,19,0.00,,,0.00,160.0,meteohub,2013-03-06 17:28:00,
2013-03-06 10:34:00,44.2,6.8,30.11,WNW,299,7.0,14.0,21,0.00,,,0.00,248.0,meteohub,2013-03-06 17:34:00,
2013-03-06 10:39:00,44.2,3.4,30.11,NW,306,10.0,14.0,18,0.00,,,0.00,81.0,meteohub,2013-03-06 17:39:00,
2013-03-06 10:44:00,43.7,3.0,30.10,NW,306,10.0,16.0,18,0.00,,,0.00,81.0,meteohub,2013-03-06 17:44:00,
2013-03-06 10:49:00,43.5,3.9,30.10,North,-999,-999.0,16.0,19,0.00,,,0.00,65.0,meteohub,2013-03-06 17:49:00,
2013-03-06 10:54:00,43.9,4.3,30.10,NW,306,8.0,16.0,19,0.00,,,0.00,63.0,meteohub,2013-03-06 17:54:00,
2013-03-06 11:00:00,44.1,5.5,30.09,West,274,6.0,19.0,20,0.00,,,0.00,116.0,meteohub,2013-03-06 18:00:00,
2013-03-06 11:05:00,44.2,4.6,30.10,WNW,297,11.0,19.0,19,0.00,,,0.00,206.0,meteohub,2013-03-06 18:05:00,
2013-03-06 11:10:00,44.2,5.7,30.09,NW,312,11.0,19.0,20,0.00,,,0.00,79.0,meteohub,2013-03-06 18:10:00,
2013-03-06 11:15:00,45.0,6.3,30.09,NW,306,1.0,18.0,20,0.00,,,0.00,70.0,meteohub,2013-03-06 18:15:00,
2013-03-06 11:20:00,45.5,4.5,30.09,WNW,283,2.0,18.0,18,0.00,,,0.00,248.0,meteohub,2013-03-06 18:20:00,
2013-03-06 11:26:00,45.7,4.6,30.08,West,278,4.0,13.0,18,0.00,,,0.00,229.0,meteohub,2013-03-06 18:26:00,
2013-03-06 11:31:00,46.0,3.6,30.08,WNW,285,7.0,14.0,17,0.00,,,0.00,775.0,meteohub,2013-03-06 18:31:00,
2013-03-06 11:36:00,46.4,5.2,30.08,NW,323,8.0,14.0,18,0.00,,,0.00,779.0,meteohub,2013-03-06 18:36:00,
2013-03-06 11:41:00,46.2,6.3,30.08,NW,320,0.0,15.0,19,0.00,,,0.00,780.0,meteohub,2013-03-06 18:41:00,
2013-03-06 11:47:00,46.8,2.8,30.07,NW,322,9.0,15.0,16,0.00,,,0.00,782.0,meteohub,2013-03-06 18:47:00,
2013-03-06 11:52:00,46.9,4.5,30.07,WNW,295,5.0,15.0,17,0.00,,,0.00,795.0,meteohub,2013-03-06 18:52:00,
2013-03-06 11:57:00,47.1,4.5,30.06,NNW,327,11.0,14.0,17,0.00,,,0.00,775.0,meteohub,2013-03-06 18:57:00,
2013-03-06 12:02:00,46.4,2.7,30.06,WNW,295,4.0,14.0,16,0.00,,,0.00,246.0,meteohub,2013-03-06 19:02:00,
2013-03-06 12:08:00,46.2,2.5,30.06,NW,311,9.0,14.0,16,0.00,,,0.00,269.0,meteohub,2013-03-06 19:08:00,
2013-03-06 12:13:00,46.6,6.4,30.06,NNW,336,1.0,14.0,19,0.00,,,0.00,802.0,meteohub,2013-03-06 19:13:00,
2013-03-06 12:18:00,46.9,5.5,30.05,ESE,110,2.0,9.0,18,0.00,,,0.00,817.0,meteohub,2013-03-06 19:18:00,
2013-03-06 12:23:00,46.2,5.0,30.05,ENE,78,5.0,9.0,18,0.00,,,0.00,239.0,meteohub,2013-03-06 19:23:00,
2013-03-06 12:28:00,45.5,4.5,30.05,ESE,115,1.0,13.0,18,0.00,,,0.00,234.0,meteohub,2013-03-06 19:28:00,
2013-03-06 12:34:00,45.1,2.8,30.04,NW,318,8.0,13.0,17,0.00,,,0.00,580.0,meteohub,2013-03-06 19:34:00,
2013-03-06 12:39:00,45.3,5.5,30.04,NW,322,8.0,13.0,19,0.00,,,0.00,782.0,meteohub,2013-03-06 19:39:00,
2013-03-06 12:44:00,46.0,4.8,30.03,NW,312,7.0,15.0,18,0.00,,,0.00,784.0,meteohub,2013-03-06 19:44:00,
2013-03-06 12:50:00,46.4,6.4,30.03,NW,312,7.0,15.0,19,0.00,,,0.00,798.0,meteohub,2013-03-06 19:50:00,
2013-03-06 12:55:00,46.2,7.3,30.02,NW,306,6.0,8.0,20,0.00,,,0.00,775.0,meteohub,2013-03-06 19:55:00,
2013-03-06 13:00:00,46.6,5.4,30.02,NW,320,5.0,14.0,18,0.00,,,0.00,768.0,meteohub,2013-03-06 20:00:00,
2013-03-06 13:05:00,46.0,7.2,30.02,NW,326,4.0,14.0,20,0.00,,,0.00,751.0,meteohub,2013-03-06 20:05:00,
2013-03-06 13:10:00,46.0,7.2,30.01,WNW,299,2.0,15.0,20,0.00,,,0.00,745.0,meteohub,2013-03-06 20:10:00,
2013-03-06 13:16:00,46.6,7.7,30.01,NW,308,12.0,15.0,20,0.00,,,0.00,740.0,meteohub,2013-03-06 20:16:00,
2013-03-06 13:21:00,46.6,8.8,30.01,North,353,2.0,15.0,21,0.00,,,0.00,733.0,meteohub,2013-03-06 20:21:00,
2013-03-06 13:26:00,46.8,7.7,30.01,NW,322,4.0,14.0,20,0.00,,,0.00,728.0,meteohub,2013-03-06 20:26:00,
2013-03-06 13:31:00,46.9,7.9,30.00,NW,308,10.0,14.0,20,0.00,,,0.00,747.0,meteohub,2013-03-06 20:31:00,
2013-03-06 13:37:00,47.5,8.4,30.00,NW,310,15.0,15.0,20,0.00,,,0.00,742.0,meteohub,2013-03-06 20:37:00,
2013-03-06 13:42:00,46.8,7.7,30.00,NNW,339,0.0,15.0,20,0.00,,,0.00,717.0,meteohub,2013-03-06 20:42:00,
2013-03-06 13:47:00,46.6,8.8,30.00,NNW,347,2.0,15.0,21,0.00,,,0.00,696.0,meteohub,2013-03-06 20:47:00,
2013-03-06 13:52:00,46.9,7.9,29.99,WNW,292,0.0,15.0,20,0.00,,,0.00,680.0,meteohub,2013-03-06 20:52:00,
2013-03-06 13:58:00,47.3,5.9,30.00,NW,310,1.0,11.0,18,0.00,,,0.00,664.0,meteohub,2013-03-06 20:58:00,
2013-03-06 14:03:00,47.3,7.2,29.99,NE,35,4.0,15.0,19,0.00,,,0.00,664.0,meteohub,2013-03-06 21:03:00,
2013-03-06 14:08:00,47.1,5.7,29.99,NW,316,10.0,15.0,18,0.00,,,0.00,661.0,meteohub,2013-03-06 21:08:00,
2013-03-06 14:13:00,46.9,9.0,29.98,NW,313,1.0,15.0,21,0.00,,,0.00,668.0,meteohub,2013-03-06 21:13:00,
2013-03-06 14:19:00,47.1,8.1,29.98,NW,310,5.0,12.0,20,0.00,,,0.00,707.0,meteohub,2013-03-06 21:19:00,
2013-03-06 14:24:00,47.5,9.5,29.97,WNW,297,4.0,12.0,21,0.00,,,0.00,701.0,meteohub,2013-03-06 21:24:00,
2013-03-06 14:29:00,48.4,12.2,29.97,ENE,72,1.0,12.0,23,0.00,,,0.00,663.0,meteohub,2013-03-06 21:29:00,
2013-03-06 14:34:00,48.7,4.5,29.97,WNW,301,6.0,12.0,16,0.00,,,0.00,652.0,meteohub,2013-03-06 21:34:00,
2013-03-06 14:40:00,48.4,4.3,29.96,WNW,303,8.0,12.0,16,0.00,,,0.00,673.0,meteohub,2013-03-06 21:40:00,
2013-03-06 14:45:00,48.2,4.1,29.96,WNW,302,24.0,24.0,16,0.00,,,0.00,701.0,meteohub,2013-03-06 21:45:00,
2013-03-06 14:50:00,47.1,1.8,29.96,NW,319,10.0,24.0,15,0.00,,,0.00,548.0,meteohub,2013-03-06 21:50:00,
2013-03-06 14:55:00,47.1,3.2,29.96,NW,320,12.0,24.0,16,0.00,,,0.00,434.0,meteohub,2013-03-06 21:55:00,
2013-03-06 15:00:00,46.9,4.5,29.96,NW,322,21.0,24.0,17,0.00,,,0.00,473.0,meteohub,2013-03-06 22:00:00,
2013-03-06 15:06:00,46.9,4.5,29.96,NW,322,21.0,22.0,17,0.00,,,0.00,473.0,meteohub,2013-03-06 22:06:00,
2013-03-06 15:11:00,46.9,4.5,29.95,North,-999,-999.0,22.0,17,0.00,,,0.00,517.0,meteohub,2013-03-06 22:11:00,
2013-03-06 15:16:00,47.5,6.1,29.95,WNW,302,2.0,21.0,18,0.00,,,0.00,499.0,meteohub,2013-03-06 22:16:00,
2013-03-06 15:21:00,47.8,6.4,29.94,NW,312,9.0,15.0,18,0.00,,,0.00,506.0,meteohub,2013-03-06 22:21:00,
2013-03-06 15:26:00,48.0,5.2,29.94,WNW,297,4.0,15.0,17,0.00,,,0.00,485.0,meteohub,2013-03-06 22:26:00,
2013-03-06 15:32:00,48.2,5.4,29.94,WNW,302,12.0,15.0,17,0.00,,,0.00,455.0,meteohub,2013-03-06 22:32:00,
2013-03-06 15:37:00,47.7,5.0,29.94,NW,326,8.0,19.0,17,0.00,,,0.00,424.0,meteohub,2013-03-06 22:37:00,
2013-03-06 15:42:00,47.8,5.2,29.94,WNW,301,7.0,20.0,17,0.00,,,0.00,404.0,meteohub,2013-03-06 22:42:00,
2013-03-06 15:47:00,48.2,5.4,29.94,WNW,301,8.0,20.0,17,0.00,,,0.00,385.0,meteohub,2013-03-06 22:47:00,
2013-03-06 15:53:00,48.4,5.5,29.94,WNW,288,1.0,18.0,17,0.00,,,0.00,366.0,meteohub,2013-03-06 22:53:00,
2013-03-06 15:58:00,48.6,4.5,29.94,NNW,329,4.0,12.0,16,0.00,,,0.00,348.0,meteohub,2013-03-06 22:58:00,
2013-03-06 16:03:00,48.6,5.7,29.94,NW,324,8.0,12.0,17,0.00,,,0.00,330.0,meteohub,2013-03-06 23:03:00,
2013-03-06 16:08:00,48.0,9.9,29.94,NW,324,8.0,12.0,21,0.00,,,0.00,313.0,meteohub,2013-03-06 23:08:00,
2013-03-06 16:14:00,48.2,14.0,29.93,WNW,299,1.0,12.0,25,0.00,,,0.00,288.0,meteohub,2013-03-06 23:14:00,
2013-03-06 16:19:00,47.8,15.4,29.93,West,281,0.0,12.0,27,0.00,,,0.00,271.0,meteohub,2013-03-06 23:19:00,
2013-03-06 16:24:00,47.1,17.2,29.93,West,281,0.0,10.0,30,0.00,,,0.00,246.0,meteohub,2013-03-06 23:24:00,
2013-03-06 16:29:00,46.9,17.1,29.93,West,281,0.0,14.0,30,0.00,,,0.00,225.0,meteohub,2013-03-06 23:29:00,
2013-03-06 16:35:00,46.6,16.0,29.93,West,281,0.0,14.0,29,0.00,,,0.00,207.0,meteohub,2013-03-06 23:35:00,
2013-03-06 16:40:00,46.2,14.0,29.93,WNW,303,7.0,7.0,27,0.00,,,0.00,181.0,meteohub,2013-03-06 23:40:00,
2013-03-06 16:45:00,46.0,10.2,29.93,NNW,330,5.0,13.0,23,0.00,,,0.00,158.0,meteohub,2013-03-06 23:45:00,
2013-03-06 16:50:00,45.7,9.0,29.93,NW,326,8.0,15.0,22,0.00,,,0.00,104.0,meteohub,2013-03-06 23:50:00,
2013-03-06 16:55:00,44.8,11.1,29.94,NW,325,10.0,19.0,25,0.00,,,0.00,21.0,meteohub,2013-03-06 23:55:00,
2013-03-06 17:01:00,43.9,11.1,29.94,NW,308,12.0,19.0,26,0.00,,,0.00,53.0,meteohub,2013-03-07 00:01:00,
2013-03-06 17:06:00,43.2,10.6,29.93,NW,304,13.0,20.0,26,0.00,,,0.00,32.0,meteohub,2013-03-07 00:06:00,
2013-03-06 17:11:00,42.6,10.0,29.93,NW,305,13.0,20.0,26,0.00,,,0.00,26.0,meteohub,2013-03-07 00:11:00,
2013-03-06 17:16:00,42.3,10.6,29.93,WNW,295,19.0,20.0,27,0.00,,,0.00,21.0,meteohub,2013-03-07 00:16:00,
2013-03-06 17:21:00,42.1,10.6,29.93,NW,310,13.0,21.0,27,0.00,,,0.00,18.0,meteohub,2013-03-07 00:21:00,
2013-03-06 17:27:00,41.7,10.9,29.93,WNW,303,9.0,21.0,28,0.00,,,0.00,16.0,meteohub,2013-03-07 00:27:00,
2013-03-06 17:32:00,41.5,10.8,29.93,NW,315,11.0,21.0,28,0.00,,,0.00,12.0,meteohub,2013-03-07 00:32:00,
2013-03-06 17:37:00,41.4,11.5,29.92,WNW,289,10.0,15.0,29,0.00,,,0.00,11.0,meteohub,2013-03-07 00:37:00,
2013-03-06 17:42:00,41.2,12.7,29.93,WNW,303,5.0,23.0,31,0.00,,,0.00,9.0,meteohub,2013-03-07 00:42:00,
2013-03-06 17:48:00,40.6,11.7,29.93,WNW,297,9.0,23.0,30,0.00,,,0.00,7.0,meteohub,2013-03-07 00:48:00,
2013-03-06 17:53:00,40.5,11.5,29.93,NW,309,0.0,23.0,30,0.00,,,0.00,5.0,meteohub,2013-03-07 00:53:00,
2013-03-06 17:58:00,39.9,10.9,29.92,NW,309,5.0,12.0,30,0.00,,,0.00,0.0,meteohub,2013-03-07 00:58:00,
2013-03-06 18:03:00,39.7,11.5,29.92,WNW,299,7.0,12.0,31,0.00,,,0.00,0.0,meteohub,2013-03-07 01:03:00,
2013-03-06 18:08:00,39.6,10.8,29.92,NW,311,10.0,10.0,30,0.00,,,0.00,0.0,meteohub,2013-03-07 01:08:00,
2013-03-06 18:14:00,39.0,14.4,29.92,NW,311,0.0,10.0,36,0.00,,,0.00,0.0,meteohub,2013-03-07 01:14:00,
2013-03-06 18:19:00,38.3,12.4,29.92,NW,311,4.0,10.0,34,0.00,,,0.00,0.0,meteohub,2013-03-07 01:19:00,
2013-03-06 18:24:00,37.9,14.5,29.92,WNW,287,1.0,10.0,38,0.00,,,0.00,0.0,meteohub,2013-03-07 01:24:00,
2013-03-06 18:29:00,37.4,15.3,29.92,WNW,287,4.0,9.0,40,0.00,,,0.00,0.0,meteohub,2013-03-07 01:29:00,
2013-03-06 18:34:00,37.0,15.4,29.92,WNW,287,1.0,9.0,41,0.00,,,0.00,0.0,meteohub,2013-03-07 01:34:00,
2013-03-06 18:40:00,36.7,12.9,29.92,WSW,241,0.0,8.0,37,0.00,,,0.00,0.0,meteohub,2013-03-07 01:40:00,
2013-03-06 18:45:00,36.9,13.1,29.91,WSW,241,0.0,6.0,37,0.00,,,0.00,0.0,meteohub,2013-03-07 01:45:00,
2013-03-06 18:50:00,36.7,13.5,29.91,WNW,295,1.0,9.0,38,0.00,,,0.00,0.0,meteohub,2013-03-07 01:50:00,
2013-03-06 18:55:00,37.2,11.5,29.91,NW,317,1.0,9.0,34,0.00,,,0.00,0.0,meteohub,2013-03-07 01:55:00,
2013-03-06 19:01:00,37.6,13.1,29.91,NW,317,0.0,9.0,36,0.00,,,0.00,0.0,meteohub,2013-03-07 02:01:00,
2013-03-06 19:06:00,37.0,12.6,29.91,NW,308,1.0,9.0,36,0.00,,,0.00,0.0,meteohub,2013-03-07 02:06:00,
2013-03-06 19:11:00,37.0,10.6,29.91,WNW,298,9.0,9.0,33,0.00,,,0.00,0.0,meteohub,2013-03-07 02:11:00,
2013-03-06 19:16:00,37.6,11.7,29.91,NW,304,1.0,11.0,34,0.00,,,0.00,0.0,meteohub,2013-03-07 02:16:00,
2013-03-06 19:21:00,37.4,11.7,29.90,WNW,300,1.0,11.0,34,0.00,,,0.00,0.0,meteohub,2013-03-07 02:21:00,
2013-03-06 19:27:00,37.2,12.0,29.90,West,275,4.0,11.0,35,0.00,,,0.00,0.0,meteohub,2013-03-07 02:27:00,
2013-03-06 19:32:00,37.2,10.0,29.90,North,356,1.0,10.0,32,0.00,,,0.00,0.0,meteohub,2013-03-07 02:32:00,
2013-03-06 19:37:00,37.8,11.3,29.90,North,353,4.0,7.0,33,0.00,,,0.00,0.0,meteohub,2013-03-07 02:37:00,
2013-03-06 19:42:00,37.6,11.7,29.90,North,353,1.0,7.0,34,0.00,,,0.00,0.0,meteohub,2013-03-07 02:42:00,
2013-03-06 19:48:00,37.4,10.2,29.89,North,353,4.0,7.0,32,0.00,,,0.00,0.0,meteohub,2013-03-07 02:48:00,
2013-03-06 19:53:00,36.9,11.1,29.89,SE,141,2.0,7.0,34,0.00,,,0.00,0.0,meteohub,2013-03-07 02:53:00,
2013-03-06 19:58:00,36.9,10.4,29.89,West,264,3.0,5.0,33,0.00,,,0.00,0.0,meteohub,2013-03-07 02:58:00,
2013-03-06 20:03:00,36.9,10.4,29.89,SE,137,13.0,13.0,33,0.00,,,0.00,0.0,meteohub,2013-03-07 03:03:00,
2013-03-06 20:08:00,37.8,10.6,29.89,SE,126,5.0,14.0,32,0.00,,,0.00,0.0,meteohub,2013-03-07 03:08:00,
2013-03-06 20:14:00,37.6,10.4,29.89,SE,137,0.0,14.0,32,0.00,,,0.00,0.0,meteohub,2013-03-07 03:14:00,
2013-03-06 20:19:00,37.6,10.4,29.89,NW,312,2.0,14.0,32,0.00,,,0.00,0.0,meteohub,2013-03-07 03:19:00,
2013-03-06 20:24:00,37.2,10.8,29.89,East,89,2.0,11.0,33,0.00,,,0.00,0.0,meteohub,2013-03-07 03:24:00,
2013-03-06 20:29:00,37.0,9.9,29.88,NNW,340,1.0,11.0,32,0.00,,,0.00,0.0,meteohub,2013-03-07 03:29:00,
2013-03-06 20:35:00,37.2,9.3,29.89,NNW,340,1.0,8.0,31,0.00,,,0.00,0.0,meteohub,2013-03-07 03:35:00,
2013-03-06 20:40:00,37.9,10.0,29.88,NW,308,1.0,7.0,31,0.00,,,0.00,0.0,meteohub,2013-03-07 03:40:00,
2013-03-06 20:45:00,37.4,9.5,29.88,WNW,299,1.0,10.0,31,0.00,,,0.00,0.0,meteohub,2013-03-07 03:45:00,
2013-03-06 20:50:00,37.2,10.0,29.88,SSW,203,5.0,10.0,32,0.00,,,0.00,0.0,meteohub,2013-03-07 03:50:00,
2013-03-06 20:56:00,37.8,9.1,29.88,West,261,4.0,15.0,30,0.00,,,0.00,0.0,meteohub,2013-03-07 03:56:00,
2013-03-06 21:01:00,37.9,9.3,29.88,WNW,298,11.0,15.0,30,0.00,,,0.00,0.0,meteohub,2013-03-07 04:01:00,
2013-03-06 21:06:00,38.1,10.2,29.88,NW,311,4.0,15.0,31,0.00,,,0.00,0.0,meteohub,2013-03-07 04:06:00,
2013-03-06 21:12:00,38.1,7.9,29.87,North,0,2.0,14.0,28,0.00,,,0.00,0.0,meteohub,2013-03-07 04:12:00,
2013-03-06 21:17:00,38.1,8.6,29.87,South,189,6.0,14.0,29,0.00,,,0.00,0.0,meteohub,2013-03-07 04:17:00,
2013-03-06 21:22:00,38.1,8.6,29.87,NW,325,1.0,11.0,29,0.00,,,0.00,0.0,meteohub,2013-03-07 04:22:00,
2013-03-06 21:27:00,38.1,9.5,29.86,NNW,328,0.0,10.0,30,0.00,,,0.00,0.0,meteohub,2013-03-07 04:27:00,
2013-03-06 21:32:00,37.9,8.4,29.86,WNW,293,5.0,10.0,29,0.00,,,0.00,0.0,meteohub,2013-03-07 04:32:00,
2013-03-06 21:38:00,37.9,9.3,29.86,WNW,293,4.0,11.0,30,0.00,,,0.00,0.0,meteohub,2013-03-07 04:38:00,
2013-03-06 21:43:00,37.8,8.4,29.86,SSE,149,8.0,11.0,29,0.00,,,0.00,0.0,meteohub,2013-03-07 04:43:00,
2013-03-06 21:48:00,37.8,9.1,29.86,SSW,206,4.0,11.0,30,0.00,,,0.00,0.0,meteohub,2013-03-07 04:48:00,
2013-03-06 21:53:00,37.2,7.9,29.87,SSE,158,6.0,9.0,29,0.00,,,0.00,0.0,meteohub,2013-03-07 04:53:00,
2013-03-06 21:59:00,37.6,8.2,29.87,West,278,4.0,9.0,29,0.00,,,0.00,0.0,meteohub,2013-03-07 04:59:00,
2013-03-06 22:00:00,37.8,8.4,29.87,NNE,19,16.0,16.0,29,0.00,,,0.00,0.0,meteohub,2013-03-07 05:00:00,
2013-03-06 22:01:00,37.9,8.4,29.87,ENE,62,0.0,13.0,29,0.00,,,0.00,0.0,meteohub,2013-03-07 05:01:00,
2013-03-06 22:02:00,37.9,8.4,29.87,ENE,62,4.0,13.0,29,0.00,,,0.00,0.0,meteohub,2013-03-07 05:02:00,
2013-03-06 22:07:00,38.1,8.6,29.87,ENE,65,0.0,16.0,29,0.00,,,0.00,0.0,meteohub,2013-03-07 05:07:00,
2013-03-06 22:12:00,38.5,8.2,29.86,NW,313,8.0,16.0,28,0.00,,,0.00,0.0,meteohub,2013-03-07 05:12:00,
2013-03-06 22:18:00,38.3,8.8,29.86,NW,320,0.0,19.0,29,0.00,,,0.00,0.0,meteohub,2013-03-07 05:18:00,
2013-03-06 22:23:00,37.9,8.4,29.86,WNW,299,7.0,19.0,29,0.00,,,0.00,0.0,meteohub,2013-03-07 05:23:00,
2013-03-06 22:28:00,38.1,8.6,29.86,NW,305,0.0,19.0,29,0.00,,,0.00,0.0,meteohub,2013-03-07 05:28:00,
2013-03-06 22:34:00,37.9,8.4,29.86,North,356,4.0,19.0,29,0.00,,,0.00,0.0,meteohub,2013-03-07 05:34:00,
2013-03-06 22:39:00,38.1,8.6,29.86,WNW,299,5.0,18.0,29,0.00,,,0.00,0.0,meteohub,2013-03-07 05:39:00,
2013-03-06 22:44:00,38.1,9.5,29.85,NW,310,2.0,21.0,30,0.00,,,0.00,0.0,meteohub,2013-03-07 05:44:00,
2013-03-06 22:49:00,38.1,8.6,29.85,NW,308,10.0,21.0,29,0.00,,,0.00,0.0,meteohub,2013-03-07 05:49:00,
2013-03-06 22:55:00,38.3,8.8,29.85,NW,308,4.0,21.0,29,0.00,,,0.00,0.0,meteohub,2013-03-07 05:55:00,
2013-03-06 23:00:00,38.1,8.6,29.85,SW,230,4.0,19.0,29,0.00,,,0.00,0.0,meteohub,2013-03-07 06:00:00,
2013-03-06 23:05:00,38.1,8.6,29.84,NW,316,13.0,20.0,29,0.00,,,0.00,0.0,meteohub,2013-03-07 06:05:00,
2013-03-06 23:10:00,38.1,8.6,29.84,WNW,303,9.0,22.0,29,0.00,,,0.00,0.0,meteohub,2013-03-07 06:10:00,
2013-03-06 23:15:00,38.1,8.6,29.84,North,-999,-999.0,22.0,29,0.00,,,0.00,0.0,meteohub,2013-03-07 06:15:00,
2013-03-06 23:21:00,37.6,8.2,29.84,NW,314,0.0,22.0,29,0.00,,,0.00,0.0,meteohub,2013-03-07 06:21:00,
2013-03-06 23:26:00,37.6,8.2,29.84,SW,218,2.0,9.0,29,0.00,,,0.00,0.0,meteohub,2013-03-07 06:26:00,
2013-03-06 23:31:00,37.8,9.9,29.84,WNW,295,6.0,11.0,31,0.00,,,0.00,0.0,meteohub,2013-03-07 06:31:00,
2013-03-06 23:36:00,37.9,8.4,29.84,NNW,335,2.0,16.0,29,0.00,,,0.00,0.0,meteohub,2013-03-07 06:36:00,
2013-03-06 23:41:00,37.9,8.4,29.84,NW,326,9.0,16.0,29,0.00,,,0.00,0.0,meteohub,2013-03-07 06:41:00,
2013-03-06 23:47:00,37.9,9.3,29.84,WNW,303,6.0,16.0,30,0.00,,,0.00,0.0,meteohub,2013-03-07 06:47:00,
2013-03-06 23:52:00,38.1,8.6,29.84,WNW,303,6.0,12.0,29,0.00,,,0.00,0.0,meteohub,2013-03-07 06:52:00,
2013-03-06 23:57:00,38.1,9.5,29.83,NNW,331,9.0,12.0,30,0.00,,,0.00,0.0,meteohub,2013-03-07 06:57:00,